Time;durP1;ratioP1;P1;durP2;ratioP2;P2;SDS_P1;SDS_P2;PMS_P1;PMS_P2;Temp;Humidity;BMP_temperature;BMP_pressure;BME280_temperature;BME280_humidity;BME280_pressure;Samples;Min_cycle;Max_cycle;Signal;HPM_P1;HPM_P2
2021/07/17 00:00:07;;;;;;;0.30;0.30;;;22.40;99.90;;;;;;5089158;28;20168;-73
2021/07/17 00:02:33;;;;;;;0.20;0.20;;;22.40;99.90;;;;;;5087486;28;20175;-74
2021/07/17 00:04:59;;;;;;;0.30;0.30;;;22.40;99.90;;;;;;5089240;28;20162;-74
2021/07/17 00:07:25;;;;;;;0.82;0.68;;;22.40;99.90;;;;;;5089056;28;20193;-74
2021/07/17 00:09:51;;;;;;;0.38;0.20;;;22.50;99.90;;;;;;5089201;28;20187;-74
2021/07/17 00:12:17;;;;;;;0.20;0.20;;;22.40;99.90;;;;;;5089305;28;20671;-73
2021/07/17 00:14:43;;;;;;;0.10;0.10;;;22.40;99.90;;;;;;5087940;28;20172;-73
2021/07/17 00:17:09;;;;;;;0.32;0.32;;;22.40;99.90;;;;;;5089219;28;20223;-73
2021/07/17 00:19:35;;;;;;;0.20;0.20;;;22.50;99.90;;;;;;5089096;28;20184;-73
2021/07/17 00:22:01;;;;;;;0.20;0.20;;;22.60;99.90;;;;;;5089051;28;20195;-74
2021/07/17 00:24:26;;;;;;;3.63;1.85;;;22.70;99.90;;;;;;5087822;28;20194;-74
2021/07/17 00:26:52;;;;;;;0.52;0.52;;;22.80;99.90;;;;;;5088931;28;20544;-74
2021/07/17 00:29:18;;;;;;;0.32;0.32;;;22.90;99.90;;;;;;5089032;28;20148;-74
2021/07/17 00:31:44;;;;;;;0.28;0.28;;;22.90;99.90;;;;;;5087639;28;20196;-74
2021/07/17 00:34:10;;;;;;;26.88;1.13;;;22.70;99.90;;;;;;5088864;28;20156;-75
2021/07/17 00:36:36;;;;;;;0.38;0.38;;;22.70;99.90;;;;;;5088583;28;20171;-75
2021/07/17 00:39:02;;;;;;;0.75;0.75;;;22.70;99.90;;;;;;5087661;28;20175;-74
2021/07/17 00:41:28;;;;;;;0.10;0.10;;;22.70;99.90;;;;;;5088789;28;20188;-74
2021/07/17 00:43:54;;;;;;;0.30;0.30;;;22.60;99.90;;;;;;5088975;28;20198;-75
2021/07/17 00:46:20;;;;;;;0.68;0.68;;;22.60;99.90;;;;;;5088391;28;20231;-74
2021/07/17 00:48:47;;;;;;;0.22;0.22;;;22.50;99.90;;;;;;5088836;28;20179;-75
2021/07/17 00:51:16;;;;;;;0.93;0.93;;;22.50;99.90;;;;;;5088738;28;20191;-74
2021/07/17 00:53:42;;;;;;;1.85;0.95;;;22.60;99.90;;;;;;5088732;28;20163;-74
2021/07/17 00:56:11;;;;;;;0.10;0.10;;;22.60;99.90;;;;;;5088770;28;20156;-74
2021/07/17 00:58:40;;;;;;;0.45;0.45;;;22.40;99.90;;;;;;5087347;28;20172;-75
2021/07/17 01:01:07;;;;;;;0.68;0.60;;;22.40;99.90;;;;;;5087259;28;20199;-74
2021/07/17 01:03:33;;;;;;;0.65;0.65;;;22.50;99.90;;;;;;5088631;28;20156;-75
2021/07/17 01:06:00;;;;;;;0.30;0.30;;;22.40;99.90;;;;;;5088508;28;20187;-74
2021/07/17 01:08:25;;;;;;;0.20;0.20;;;22.60;99.90;;;;;;5088643;28;20243;-74
2021/07/17 01:10:52;;;;;;;0.35;0.35;;;22.60;99.90;;;;;;5087097;28;20194;-75
2021/07/17 01:13:18;;;;;;;3.97;0.80;;;22.60;99.90;;;;;;5087144;28;20170;-75
2021/07/17 01:15:44;;;;;;;0.85;0.70;;;22.60;99.90;;;;;;5088551;28;20184;-74
2021/07/17 01:18:10;;;;;;;0.75;0.75;;;22.70;99.90;;;;;;5087276;28;20505;-74
2021/07/17 01:20:38;;;;;;;3.03;0.47;;;22.70;99.90;;;;;;5088462;28;20202;-74
2021/07/17 01:23:04;;;;;;;0.47;0.47;;;22.80;99.90;;;;;;5088357;28;20156;-74
2021/07/17 01:25:34;;;;;;;0.10;0.10;;;22.80;99.90;;;;;;5088413;28;20160;-74
2021/07/17 01:28:01;;;;;;;0.32;0.32;;;22.80;99.90;;;;;;5088446;28;20168;-74
2021/07/17 01:30:30;;;;;;;10.65;0.85;;;22.80;99.90;;;;;;5086954;28;20215;-74
2021/07/17 01:32:57;;;;;;;0.57;0.57;;;22.70;99.90;;;;;;5088416;28;20157;-75
2021/07/17 01:35:24;;;;;;;0.35;0.30;;;22.80;99.90;;;;;;5086991;28;20160;-74
2021/07/17 01:37:50;;;;;;;0.65;0.65;;;22.90;99.90;;;;;;5088317;28;20159;-74
2021/07/17 01:40:20;;;;;;;0.20;0.20;;;22.80;99.90;;;;;;5088254;28;20192;-74
2021/07/17 01:42:47;;;;;;;0.90;0.90;;;22.90;99.90;;;;;;5088260;28;20151;-74
2021/07/17 01:45:31;;;;;;;0.50;0.45;;;23.00;99.90;;;;;;5086794;28;20306;-75
2021/07/17 01:47:57;;;;;;;0.20;0.20;;;23.00;99.90;;;;;;5088344;28;20170;-74
2021/07/17 01:50:28;;;;;;;2.53;0.70;;;22.90;99.90;;;;;;5091049;28;20191;-74
2021/07/17 01:52:54;;;;;;;0.30;0.30;;;22.90;99.90;;;;;;5090561;28;20197;-74
2021/07/17 01:55:20;;;;;;;1.13;1.10;;;22.90;99.90;;;;;;5091872;28;20163;-75
2021/07/17 01:57:47;;;;;;;0.22;0.22;;;23.00;99.90;;;;;;5091780;28;20144;-74
2021/07/17 02:00:14;;;;;;;0.55;0.55;;;23.00;99.90;;;;;;5091609;28;20194;-74
2021/07/17 02:02:41;;;;;;;0.95;0.95;;;23.10;99.90;;;;;;5091816;28;20155;-73
2021/07/17 02:05:07;;;;;;;0.82;0.77;;;23.00;99.90;;;;;;5091698;28;20162;-73
2021/07/17 02:07:34;;;;;;;5.50;0.70;;;23.10;99.90;;;;;;5090209;28;20207;-72
2021/07/17 02:10:03;;;;;;;0.50;0.50;;;23.10;99.90;;;;;;5091390;28;20213;-73
2021/07/17 02:12:29;;;;;;;1.45;0.90;;;23.10;99.90;;;;;;5091455;28;20162;-73
2021/07/17 02:14:55;;;;;;;0.52;0.52;;;23.10;99.90;;;;;;5090158;28;20222;-73
2021/07/17 02:17:22;;;;;;;0.90;0.50;;;23.00;99.90;;;;;;5091544;28;20175;-73
2021/07/17 02:19:47;;;;;;;0.38;0.38;;;23.00;99.90;;;;;;5091302;28;20164;-73
2021/07/17 02:22:13;;;;;;;0.63;0.55;;;23.20;99.90;;;;;;5091346;28;20167;-72
2021/07/17 02:24:39;;;;;;;0.40;0.40;;;23.10;99.90;;;;;;5091293;28;20189;-73
2021/07/17 02:27:05;;;;;;;0.90;0.90;;;23.00;99.90;;;;;;5091219;28;20192;-73
2021/07/17 02:29:31;;;;;;;0.85;0.80;;;23.00;99.90;;;;;;5091222;28;20166;-73
2021/07/17 02:31:57;;;;;;;2.60;1.33;;;22.90;99.90;;;;;;5091066;28;20226;-73
2021/07/17 02:34:23;;;;;;;0.40;0.40;;;22.90;99.90;;;;;;5089696;28;20194;-73
2021/07/17 02:36:49;;;;;;;1.55;0.75;;;22.90;99.90;;;;;;5090975;28;20175;-72
2021/07/17 02:39:15;;;;;;;0.75;0.75;;;22.80;99.90;;;;;;5090961;28;20187;-73
2021/07/17 02:41:41;;;;;;;0.52;0.45;;;22.80;99.90;;;;;;5089614;28;20225;-73
2021/07/17 02:44:06;;;;;;;1.48;0.40;;;22.80;99.90;;;;;;5090904;28;20164;-73
2021/07/17 02:46:34;;;;;;;0.93;0.50;;;22.80;99.90;;;;;;5090581;28;20290;-73
2021/07/17 02:48:59;;;;;;;0.35;0.35;;;22.70;99.90;;;;;;5090819;28;20148;-73
2021/07/17 02:51:25;;;;;;;0.95;0.70;;;22.70;99.90;;;;;;5090482;28;20301;-73
2021/07/17 02:53:51;;;;;;;0.45;0.38;;;22.70;99.90;;;;;;5090752;28;20186;-73
2021/07/17 02:56:17;;;;;;;0.20;0.20;;;22.70;99.90;;;;;;5089221;28;20266;-73
2021/07/17 02:58:43;;;;;;;0.45;0.38;;;22.70;99.90;;;;;;5089323;28;20172;-73
2021/07/17 03:01:09;;;;;;;0.73;0.60;;;22.70;99.90;;;;;;5086677;28;20264;-73
2021/07/17 03:03:35;;;;;;;2.72;1.50;;;22.80;99.90;;;;;;5089656;28;20152;-73
2021/07/17 03:06:01;;;;;;;0.30;0.30;;;22.70;99.90;;;;;;5089733;28;20249;-73
2021/07/17 03:08:26;;;;;;;1.05;0.68;;;22.70;99.90;;;;;;5088129;28;20168;-73
2021/07/17 03:10:56;;;;;;;1.25;0.45;;;22.70;99.90;;;;;;5088214;28;20203;-73
2021/07/17 03:13:22;;;;;;;0.25;0.25;;;22.60;99.90;;;;;;5089677;28;20187;-73
2021/07/17 03:15:49;;;;;;;0.80;0.65;;;22.60;99.90;;;;;;5089371;28;20258;-73
2021/07/17 03:18:17;;;;;;;0.80;0.80;;;22.70;99.90;;;;;;5089668;28;20519;-73
2021/07/17 03:20:44;;;;;;;1.38;0.55;;;22.60;99.90;;;;;;5088094;28;20229;-73
2021/07/17 03:23:11;;;;;;;1.65;0.73;;;22.60;99.90;;;;;;5089358;28;20160;-73
2021/07/17 03:25:37;;;;;;;0.22;0.22;;;22.60;99.90;;;;;;5087991;28;20172;-73
2021/07/17 03:28:03;;;;;;;0.60;0.60;;;22.70;99.90;;;;;;5089180;28;20160;-73
2021/07/17 03:30:29;;;;;;;0.25;0.25;;;22.60;99.90;;;;;;5089263;28;20191;-74
2021/07/17 03:32:54;;;;;;;0.63;0.45;;;22.60;99.90;;;;;;5089920;28;20710;-73
2021/07/17 03:35:20;;;;;;;0.50;0.50;;;22.70;99.90;;;;;;5089954;28;20243;-73
2021/07/17 03:37:46;;;;;;;1.98;0.93;;;22.90;99.90;;;;;;5088590;28;20175;-72
2021/07/17 03:40:13;;;;;;;0.20;0.20;;;22.90;99.90;;;;;;5089856;28;20186;-73
2021/07/17 03:42:39;;;;;;;0.65;0.55;;;22.90;99.90;;;;;;5089843;28;20160;-73
2021/07/17 03:45:06;;;;;;;0.90;0.70;;;22.80;99.90;;;;;;5089529;28;20702;-73
2021/07/17 03:47:32;;;;;;;0.50;0.50;;;22.90;99.90;;;;;;5087971;28;20214;-73
2021/07/17 03:49:58;;;;;;;1.75;0.82;;;23.00;99.90;;;;;;5089617;28;20193;-73
2021/07/17 03:52:24;;;;;;;0.95;0.90;;;23.00;99.90;;;;;;5089715;28;20160;-73
2021/07/17 03:54:49;;;;;;;0.40;0.40;;;23.10;99.90;;;;;;5089602;28;20163;-72
2021/07/17 03:57:15;;;;;;;0.90;0.50;;;23.10;99.90;;;;;;5089379;28;20238;-72
2021/07/17 03:59:41;;;;;;;0.40;0.40;;;23.10;99.90;;;;;;5089561;28;20169;-72
2021/07/17 04:02:07;;;;;;;0.93;0.82;;;23.10;99.90;;;;;;5088128;28;20222;-72
2021/07/17 04:04:39;;;;;;;0.38;0.38;;;23.10;99.90;;;;;;5089418;28;20160;-72
2021/07/17 04:07:05;;;;;;;0.65;0.65;;;23.00;99.90;;;;;;5089262;28;20215;-72
2021/07/17 04:09:31;;;;;;;0.82;0.60;;;22.90;99.90;;;;;;5089281;28;20206;-72
2021/07/17 04:11:57;;;;;;;0.75;0.75;;;22.70;99.90;;;;;;5088627;28;20195;-72
2021/07/17 04:14:23;;;;;;;1.67;1.00;;;22.40;99.90;;;;;;5089339;28;20159;-72
2021/07/17 04:16:49;;;;;;;0.70;0.70;;;21.90;99.90;;;;;;5088058;28;20171;-73
2021/07/17 04:19:15;;;;;;;0.32;0.32;;;21.30;99.90;;;;;;5089189;28;20505;-73
2021/07/17 04:21:41;;;;;;;0.55;0.55;;;20.90;99.90;;;;;;5089174;28;20196;-72
2021/07/17 04:24:07;;;;;;;1.13;1.13;;;20.50;99.90;;;;;;5089303;28;20157;-72
2021/07/17 04:26:34;;;;;;;1.95;1.05;;;20.20;99.90;;;;;;5089051;28;20195;-72
2021/07/17 04:28:59;;;;;;;0.90;0.90;;;19.90;99.90;;;;;;5089197;28;20523;-72
2021/07/17 04:31:25;;;;;;;1.52;0.63;;;19.80;99.90;;;;;;5088870;28;20219;-72
2021/07/17 04:33:51;;;;;;;1.65;0.68;;;19.50;99.90;;;;;;5088945;28;20163;-72
2021/07/17 04:36:17;;;;;;;1.58;1.17;;;19.30;99.90;;;;;;5089054;28;20164;-72
2021/07/17 04:38:43;;;;;;;2.30;1.17;;;19.10;99.90;;;;;;5087678;28;20164;-72
2021/07/17 04:41:09;;;;;;;1.05;0.82;;;19.00;99.90;;;;;;5088759;28;20688;-72
2021/07/17 04:43:35;;;;;;;1.92;0.82;;;18.90;99.90;;;;;;5088815;28;20198;-72
2021/07/17 04:46:01;;;;;;;18.77;1.50;;;18.70;99.90;;;;;;5088673;28;20223;-72
2021/07/17 04:48:27;;;;;;;0.55;0.50;;;18.70;99.90;;;;;;5087353;28;20166;-72
2021/07/17 04:50:53;;;;;;;5.80;1.30;;;18.60;99.90;;;;;;5088621;28;20194;-72
2021/07/17 04:53:19;;;;;;;0.75;0.75;;;18.60;99.90;;;;;;5088723;28;20168;-72
2021/07/17 04:55:45;;;;;;;1.00;0.80;;;18.50;99.90;;;;;;5087424;28;20176;-72
2021/07/17 04:58:11;;;;;;;0.70;0.70;;;18.40;99.90;;;;;;5088581;28;20181;-73
2021/07/17 05:00:37;;;;;;;2.00;0.90;;;18.30;99.90;;;;;;5088690;28;20700;-73
2021/07/17 05:03:03;;;;;;;2.33;1.80;;;18.30;99.90;;;;;;5087510;28;20168;-73
2021/07/17 05:05:29;;;;;;;1.48;1.38;;;18.20;99.90;;;;;;5088658;28;20612;-72
2021/07/17 05:07:55;;;;;;;2.10;2.00;;;18.20;99.90;;;;;;5087360;28;20226;-72
2021/07/17 05:10:25;;;;;;;1.80;1.17;;;18.20;99.90;;;;;;5088548;28;20267;-72
2021/07/17 05:12:52;;;;;;;1.13;1.13;;;18.20;99.90;;;;;;5087177;28;20164;-72
2021/07/17 05:15:19;;;;;;;1.98;1.80;;;18.20;99.90;;;;;;5088117;28;20153;-72
2021/07/17 05:17:45;;;;;;;1.08;0.88;;;18.10;99.90;;;;;;5088173;28;20217;-72
2021/07/17 05:20:13;;;;;;;1.23;1.23;;;18.10;99.90;;;;;;5088508;28;20590;-72
2021/07/17 05:22:39;;;;;;;1.20;1.20;;;18.10;99.90;;;;;;5088845;28;20164;-72
2021/07/17 05:25:06;;;;;;;1.42;1.33;;;18.10;99.90;;;;;;5091072;28;20187;-72
2021/07/17 05:27:31;;;;;;;0.90;0.90;;;18.10;99.90;;;;;;5092329;28;20188;-72
2021/07/17 05:29:57;;;;;;;2.05;1.95;;;18.20;99.90;;;;;;5092265;28;20558;-72
2021/07/17 05:32:23;;;;;;;0.77;0.77;;;18.20;99.90;;;;;;5090924;28;20185;-72
2021/07/17 05:34:49;;;;;;;1.92;1.27;;;18.20;99.90;;;;;;5090864;28;20232;-72
2021/07/17 05:37:15;;;;;;;1.83;1.73;;;18.20;99.90;;;;;;5092249;28;20198;-72
2021/07/17 05:39:41;;;;;;;0.60;0.60;;;18.20;99.90;;;;;;5092290;28;20182;-72
2021/07/17 05:42:07;;;;;;;0.60;0.52;;;18.30;99.90;;;;;;5092150;28;20200;-72
2021/07/17 05:44:34;;;;;;;1.10;1.00;;;18.30;99.90;;;;;;5092106;28;20164;-72
2021/07/17 05:47:00;;;;;;;3.67;1.02;;;18.30;99.90;;;;;;5092065;28;20274;-72
2021/07/17 05:49:26;;;;;;;0.70;0.70;;;18.40;99.90;;;;;;5090598;28;20168;-72
2021/07/17 05:51:52;;;;;;;1.20;1.08;;;18.40;99.90;;;;;;5091943;28;20188;-72
2021/07/17 05:54:19;;;;;;;1.27;0.93;;;18.50;99.90;;;;;;5090690;28;20171;-72
2021/07/17 05:56:44;;;;;;;1.48;1.38;;;18.50;99.90;;;;;;5090588;28;20178;-72
2021/07/17 05:59:10;;;;;;;1.45;1.35;;;18.50;99.90;;;;;;5091674;28;20168;-72
2021/07/17 06:01:36;;;;;;;2.45;1.45;;;18.60;99.90;;;;;;5091569;28;20199;-72
2021/07/17 06:04:03;;;;;;;1.40;1.40;;;18.60;99.90;;;;;;5091621;28;20203;-73
2021/07/17 06:06:29;;;;;;;0.70;0.65;;;18.60;99.90;;;;;;5091547;28;20195;-72
2021/07/17 06:08:56;;;;;;;2.67;1.13;;;18.60;99.90;;;;;;5091615;28;20167;-72
2021/07/17 06:11:22;;;;;;;1.85;1.38;;;18.60;99.90;;;;;;5091401;28;20192;-73
2021/07/17 06:13:48;;;;;;;0.70;0.70;;;18.70;99.90;;;;;;5091453;28;20164;-73
2021/07/17 06:16:14;;;;;;;1.50;1.45;;;18.70;99.90;;;;;;5091433;28;20167;-72
2021/07/17 06:18:40;;;;;;;0.82;0.82;;;18.70;99.90;;;;;;5090160;28;20199;-72
2021/07/17 06:21:06;;;;;;;6.13;1.33;;;18.70;99.90;;;;;;5091398;28;20192;-73
2021/07/17 06:23:32;;;;;;;1.40;0.90;;;18.70;99.90;;;;;;5090039;28;20172;-73
2021/07/17 06:25:59;;;;;;;2.30;2.00;;;18.70;99.90;;;;;;5091348;28;20244;-73
2021/07/17 06:28:25;;;;;;;2.85;1.70;;;18.70;99.90;;;;;;5091182;28;20163;-72
2021/07/17 06:30:51;;;;;;;1.55;1.00;;;18.60;99.90;;;;;;5089858;28;20191;-73
2021/07/17 06:33:17;;;;;;;7.55;1.35;;;18.60;99.90;;;;;;5091076;28;20160;-72
2021/07/17 06:35:43;;;;;;;1.55;1.45;;;18.60;99.90;;;;;;5089132;28;20172;-72
2021/07/17 06:38:08;;;;;;;0.60;0.60;;;18.60;99.90;;;;;;5091102;28;20156;-73
2021/07/17 06:40:34;;;;;;;3.30;1.75;;;18.70;99.90;;;;;;5090918;28;20192;-72
2021/07/17 06:43:00;;;;;;;1.33;1.25;;;18.80;99.90;;;;;;5090994;28;20159;-73
2021/07/17 06:45:26;;;;;;;1.00;0.85;;;18.90;99.90;;;;;;5090833;28;20687;-73
2021/07/17 06:47:52;;;;;;;1.00;0.95;;;18.90;99.90;;;;;;5090891;28;20180;-73
2021/07/17 06:50:21;;;;;;;1.02;1.02;;;18.90;99.90;;;;;;5090424;28;20229;-73
2021/07/17 06:52:48;;;;;;;0.75;0.75;;;19.00;99.90;;;;;;5090742;28;20159;-73
2021/07/17 06:55:14;;;;;;;0.75;0.50;;;19.00;99.90;;;;;;5089424;28;20164;-73
2021/07/17 06:57:41;;;;;;;0.52;0.52;;;19.10;99.90;;;;;;5090798;28;20161;-73
2021/07/17 07:00:10;;;;;;;21.20;1.50;;;19.10;99.90;;;;;;5088835;28;20221;-73
2021/07/17 07:02:37;;;;;;;2.25;0.73;;;19.10;99.90;;;;;;5088588;28;20196;-73
2021/07/17 07:05:05;;;;;;;1.33;0.95;;;19.00;99.90;;;;;;5089965;28;20160;-73
2021/07/17 07:07:31;;;;;;;0.90;0.90;;;19.10;99.90;;;;;;5088430;28;20219;-73
2021/07/17 07:09:57;;;;;;;0.50;0.30;;;19.10;99.90;;;;;;5089629;28;20163;-73
2021/07/17 07:12:23;;;;;;;3.35;0.63;;;19.10;99.90;;;;;;5089600;28;20160;-73
2021/07/17 07:14:49;;;;;;;2.00;1.65;;;19.10;99.90;;;;;;5089726;28;20175;-73
2021/07/17 07:17:15;;;;;;;0.73;0.73;;;19.00;99.90;;;;;;5089665;28;20170;-73
2021/07/17 07:19:41;;;;;;;1.08;0.63;;;19.00;99.90;;;;;;5089356;28;20164;-73
2021/07/17 07:22:07;;;;;;;0.55;0.55;;;19.00;99.90;;;;;;5086954;28;20223;-74
2021/07/17 07:24:33;;;;;;;0.57;0.47;;;19.20;99.90;;;;;;5079155;28;20232;-73
2021/07/17 07:27:02;;;;;;;1.85;1.25;;;19.30;99.90;;;;;;5086790;28;20202;-73
2021/07/17 07:29:28;;;;;;;0.32;0.30;;;19.30;99.90;;;;;;5080235;28;20208;-73
2021/07/17 07:31:54;;;;;;;0.70;0.57;;;19.40;99.90;;;;;;5080434;28;20258;-74
2021/07/17 07:34:21;;;;;;;0.88;0.20;;;19.70;99.90;;;;;;5076522;28;20165;-73
2021/07/17 07:36:48;;;;;;;0.73;0.73;;;19.90;99.90;;;;;;5072235;28;20214;-74
2021/07/17 07:39:15;;;;;;;0.43;0.43;;;20.00;99.90;;;;;;5077138;28;20199;-73
2021/07/17 07:41:41;;;;;;;0.30;0.30;;;20.10;99.90;;;;;;5088683;28;20176;-70
2021/07/17 07:44:07;;;;;;;0.47;0.47;;;20.40;99.90;;;;;;5080589;28;20219;-71
2021/07/17 07:46:34;;;;;;;3.17;1.88;;;20.40;99.90;;;;;;5087245;28;20334;-72
2021/07/17 07:49:01;;;;;;;3.55;2.72;;;20.40;99.90;;;;;;5088013;28;20421;-72
2021/07/17 07:51:27;;;;;;;2.03;1.42;;;20.40;99.90;;;;;;5087094;28;20202;-71
2021/07/17 07:53:53;;;;;;;0.60;0.60;;;20.30;99.90;;;;;;5088556;28;20175;-70
2021/07/17 07:56:19;;;;;;;0.52;0.38;;;20.20;99.90;;;;;;5084591;28;20187;-69
2021/07/17 07:58:45;;;;;;;0.50;0.50;;;20.10;99.90;;;;;;5087686;28;20223;-72
2021/07/17 08:01:11;;;;;;;0.45;0.45;;;20.10;99.90;;;;;;5088821;28;20271;-70
2021/07/17 08:03:37;;;;;;;0.63;0.63;;;19.90;99.90;;;;;;5089155;28;20160;-72
2021/07/17 08:06:02;;;;;;;0.45;0.30;;;19.70;99.90;;;;;;5088971;28;20199;-70
2021/07/17 08:08:28;;;;;;;7.28;0.70;;;19.70;99.90;;;;;;5089080;28;20148;-72
2021/07/17 08:10:54;;;;;;;2.45;0.90;;;19.80;99.90;;;;;;5088873;28;20188;-73
2021/07/17 08:13:20;;;;;;;0.70;0.70;;;19.70;99.90;;;;;;5089152;28;20163;-74
2021/07/17 08:15:47;;;;;;;0.40;0.38;;;19.70;99.90;;;;;;5088894;28;20163;-73
2021/07/17 08:18:12;;;;;;;0.55;0.55;;;19.80;99.90;;;;;;5088815;28;20263;-73
2021/07/17 08:20:42;;;;;;;3.30;0.40;;;19.90;99.90;;;;;;5087598;28;20203;-75
2021/07/17 08:23:08;;;;;;;0.55;0.55;;;20.00;99.90;;;;;;5087647;28;20164;-76
2021/07/17 08:25:35;;;;;;;0.22;0.22;;;20.00;99.90;;;;;;5087368;28;20238;-74
2021/07/17 08:28:02;;;;;;;0.60;0.60;;;19.90;99.90;;;;;;5088871;28;20156;-70
2021/07/17 08:30:28;;;;;;;0.80;0.63;;;20.00;99.90;;;;;;5085200;28;20192;-69
2021/07/17 08:32:55;;;;;;;2.10;0.28;;;20.00;99.90;;;;;;5088902;28;20605;-70
2021/07/17 08:35:22;;;;;;;1.27;0.73;;;20.20;99.90;;;;;;5086913;28;20196;-72
2021/07/17 08:37:48;;;;;;;0.17;0.17;;;20.30;99.90;;;;;;5095836;28;20187;-73
2021/07/17 08:40:14;;;;;;;0.57;0.57;;;20.40;99.90;;;;;;5108382;28;20229;-72
2021/07/17 08:42:45;;;;;;;0.20;0.20;;;20.40;99.90;;;;;;5102463;28;20187;-72
2021/07/17 08:45:11;;;;;;;0.40;0.38;;;20.40;99.90;;;;;;5087827;28;20241;-72
2021/07/17 08:47:41;;;;;;;0.50;0.50;;;20.40;99.90;;;;;;5087349;28;20218;-71
2021/07/17 08:50:14;;;;;;;0.28;0.28;;;20.60;99.90;;;;;;5086920;28;20701;-71
2021/07/17 08:52:41;;;;;;;1.40;0.85;;;20.80;99.90;;;;;;5087250;28;20159;-69
2021/07/17 08:55:09;;;;;;;0.40;0.32;;;20.90;99.90;;;;;;5086206;28;20701;-69
2021/07/17 08:57:37;;;;;;;0.57;0.57;;;20.90;99.90;;;;;;5087893;28;20172;-68
2021/07/17 09:00:15;;;;;;;0.45;0.40;;;20.90;99.90;;;;;;5088363;28;20194;-68
2021/07/17 09:02:43;;;;;;;0.08;0.08;;;20.90;99.90;;;;;;5088519;28;20156;-69
2021/07/17 09:05:14;;;;;;;0.10;0.10;;;21.00;99.90;;;;;;5088274;28;20172;-69
2021/07/17 09:07:40;;;;;;;1.75;1.40;;;21.10;99.90;;;;;;5087570;28;20207;-69
2021/07/17 09:10:34;;;;;;;0.20;0.20;;;21.20;99.90;;;;;;5086920;28;20198;-69
2021/07/17 09:13:12;;;;;;;0.57;0.52;;;21.20;99.90;;;;;;5088151;28;20565;-69
2021/07/17 09:15:52;;;;;;;0.35;0.35;;;21.10;99.90;;;;;;5088412;28;20668;-69
2021/07/17 09:18:31;;;;;;;0.32;0.32;;;21.00;99.90;;;;;;5086778;28;20205;-70
2021/07/17 09:21:13;;;;;;;0.80;0.70;;;20.90;99.90;;;;;;5087512;28;20179;-69
2021/07/17 09:23:45;;;;;;;0.20;0.20;;;20.90;99.90;;;;;;5087011;28;20176;-71
2021/07/17 09:26:21;;;;;;;0.70;0.70;;;20.90;99.90;;;;;;5087211;28;20195;-71
2021/07/17 09:29:19;;;;;;;0.32;0.20;;;20.80;99.90;;;;;;5087875;28;20156;-71
2021/07/17 09:31:48;;;;;;;0.13;0.13;;;20.80;99.90;;;;;;5070873;28;20322;-70
2021/07/17 09:34:15;;;;;;;1.00;0.65;;;20.80;99.90;;;;;;5087917;28;20194;-71
2021/07/17 09:37:01;;;;;;;0.38;0.38;;;20.80;99.90;;;;;;5086353;28;20171;-72
2021/07/17 09:39:32;;;;;;;0.25;0.25;;;20.90;99.90;;;;;;5087710;28;20652;-73
2021/07/17 09:41:59;;;;;;;0.10;0.10;;;21.00;99.90;;;;;;5086996;28;20179;-72
2021/07/17 09:44:27;;;;;;;0.57;0.57;;;21.00;99.90;;;;;;5087769;28;20183;-72
2021/07/17 09:46:53;;;;;;;0.32;0.32;;;21.00;99.90;;;;;;5087969;28;20223;-72
2021/07/17 09:49:22;;;;;;;0.50;0.50;;;21.00;99.90;;;;;;5086722;28;20191;-72
2021/07/17 09:52:05;;;;;;;0.60;0.60;;;21.10;99.90;;;;;;5086705;28;20172;-72
2021/07/17 09:54:30;;;;;;;0.08;0.08;;;21.00;99.90;;;;;;5086561;28;20499;-72
2021/07/17 09:57:01;;;;;;;0.63;0.63;;;21.00;99.90;;;;;;5087927;28;20163;-73
2021/07/17 09:59:27;;;;;;;0.52;0.52;;;20.90;99.90;;;;;;5087873;28;20156;-72
2021/07/17 10:01:53;;;;;;;0.75;0.75;;;20.90;99.90;;;;;;5087982;28;20251;-73
2021/07/17 10:04:19;;;;;;;0.22;0.22;;;20.90;99.90;;;;;;5087090;28;20189;-72
2021/07/17 10:06:47;;;;;;;0.32;0.32;;;20.90;99.90;;;;;;5087833;28;20195;-72
2021/07/17 10:09:16;;;;;;;0.52;0.52;;;20.90;99.90;;;;;;5087481;28;20267;-72
2021/07/17 10:11:50;;;;;;;0.65;0.63;;;20.80;99.90;;;;;;5090737;28;20192;-72
2021/07/17 10:14:21;;;;;;;0.70;0.55;;;20.70;99.90;;;;;;5091490;28;20231;-72
2021/07/17 10:16:49;;;;;;;0.65;0.60;;;20.70;99.90;;;;;;5092327;28;20164;-72
2021/07/17 10:19:16;;;;;;;0.35;0.35;;;20.60;99.90;;;;;;5098881;28;20243;-72
2021/07/17 10:21:43;;;;;;;0.20;0.20;;;20.50;99.90;;;;;;5092829;28;20222;-72
2021/07/17 10:24:13;;;;;;;0.40;0.40;;;20.40;99.90;;;;;;5084690;28;20233;-72
2021/07/17 10:26:40;;;;;;;0.30;0.30;;;20.40;99.90;;;;;;5086597;28;20241;-72
2021/07/17 10:29:08;;;;;;;0.40;0.40;;;20.30;99.90;;;;;;5090564;28;20505;-72
2021/07/17 10:31:35;;;;;;;0.25;0.25;;;20.30;99.90;;;;;;5084758;28;20203;-72
2021/07/17 10:34:01;;;;;;;0.20;0.20;;;20.20;99.90;;;;;;5089353;28;20183;-72
2021/07/17 10:36:28;;;;;;;1.00;0.85;;;20.10;99.90;;;;;;5083771;28;20180;-70
2021/07/17 10:39:02;;;;;;;0.20;0.20;;;20.20;99.90;;;;;;5086670;28;20204;-70
2021/07/17 10:41:33;;;;;;;0.00;0.00;;;20.10;99.90;;;;;;5087213;28;20175;-70
2021/07/17 10:43:59;;;;;;;1.17;0.75;;;20.00;99.90;;;;;;5086230;28;20187;-70
2021/07/17 10:46:39;;;;;;;0.50;0.40;;;20.00;99.90;;;;;;5088400;28;20223;-71
2021/07/17 10:49:09;;;;;;;0.30;0.30;;;20.10;99.90;;;;;;5086945;28;20594;-70
2021/07/17 10:51:37;;;;;;;0.00;0.00;;;20.10;99.90;;;;;;5090709;28;20171;-72
2021/07/17 10:54:12;;;;;;;0.30;0.30;;;20.10;99.90;;;;;;5090568;28;20187;-70
2021/07/17 10:56:42;;;;;;;0.22;0.22;;;20.10;99.90;;;;;;5090470;28;20175;-72
2021/07/17 10:59:16;;;;;;;0.35;0.35;;;20.10;99.90;;;;;;5089979;28;20199;-72
2021/07/17 11:01:58;;;;;;;0.10;0.10;;;20.10;99.90;;;;;;5086498;28;20181;-71
2021/07/17 11:04:34;;;;;;;0.10;0.10;;;20.00;99.90;;;;;;5079815;28;20160;-70
2021/07/17 11:07:15;;;;;;;0.20;0.20;;;19.90;99.90;;;;;;5086464;28;20200;-70
2021/07/17 11:09:54;;;;;;;0.13;0.13;;;19.90;99.90;;;;;;5087759;28;20770;-71
2021/07/17 11:12:21;;;;;;;0.40;0.40;;;19.80;99.90;;;;;;5089102;28;20175;-71
2021/07/17 11:14:47;;;;;;;0.20;0.20;;;19.70;99.90;;;;;;5089780;28;20640;-69
2021/07/17 11:17:33;;;;;;;0.77;0.68;;;19.70;99.90;;;;;;5090226;28;20228;-70
2021/07/17 11:20:15;;;;;;;0.60;0.55;;;19.60;99.90;;;;;;5090128;28;20196;-70
2021/07/17 11:22:41;;;;;;;0.28;0.28;;;19.40;99.90;;;;;;5088727;28;20195;-71
2021/07/17 11:25:07;;;;;;;0.50;0.32;;;19.30;99.90;;;;;;5089961;28;20166;-70
2021/07/17 11:27:39;;;;;;;0.40;0.40;;;19.20;99.90;;;;;;5090084;28;20302;-70
2021/07/17 11:30:14;;;;;;;1.38;1.27;;;19.10;99.90;;;;;;5089825;28;20251;-70
2021/07/17 11:33:06;;;;;;;2.88;2.17;;;18.90;99.90;;;;;;5089874;28;20159;-70
2021/07/17 11:35:32;;;;;;;0.10;0.10;;;18.90;99.90;;;;;;5089876;28;20275;-70
2021/07/17 11:37:58;;;;;;;0.45;0.20;;;18.70;99.90;;;;;;5100156;28;20202;-69
2021/07/17 11:40:24;;;;;;;0.65;0.50;;;18.60;99.90;;;;;;5109874;28;20174;-69
2021/07/17 11:42:50;;;;;;;0.30;0.30;;;18.60;99.90;;;;;;5109913;28;20192;-69
2021/07/17 11:45:16;;;;;;;0.32;0.32;;;18.60;99.90;;;;;;5109617;28;20335;-69
2021/07/17 11:47:44;;;;;;;0.57;0.20;;;18.60;99.90;;;;;;5109763;28;20213;-69
2021/07/17 11:50:10;;;;;;;0.22;0.22;;;18.60;99.90;;;;;;5109810;28;20187;-69
2021/07/17 11:52:37;;;;;;;0.10;0.10;;;18.60;99.90;;;;;;5109627;28;20187;-69
2021/07/17 11:55:08;;;;;;;0.20;0.20;;;18.50;99.90;;;;;;5109751;28;20156;-69
2021/07/17 11:57:36;;;;;;;0.43;0.43;;;18.50;99.90;;;;;;5109754;28;20167;-69
2021/07/17 12:00:06;;;;;;;0.52;0.52;;;18.40;99.90;;;;;;5109735;28;20267;-69
2021/07/17 12:02:33;;;;;;;0.75;0.73;;;18.30;99.90;;;;;;5109642;28;20155;-69
2021/07/17 12:05:05;;;;;;;1.88;0.73;;;18.30;99.90;;;;;;5108384;28;20174;-69
2021/07/17 12:07:33;;;;;;;1.27;0.60;;;18.20;99.90;;;;;;5109392;28;20194;-69
2021/07/17 12:10:04;;;;;;;0.30;0.30;;;18.10;99.90;;;;;;5109457;28;20183;-69
2021/07/17 12:12:35;;;;;;;0.20;0.20;;;18.10;99.90;;;;;;5107897;28;20160;-70
2021/07/17 12:15:14;;;;;;;0.25;0.25;;;18.10;99.90;;;;;;5108430;28;20163;-69
2021/07/17 12:18:04;;;;;;;1.35;0.38;;;18.10;99.90;;;;;;5089172;28;20629;-69
2021/07/17 12:20:41;;;;;;;0.40;0.40;;;18.00;99.90;;;;;;5088826;28;20168;-69
2021/07/17 12:23:13;;;;;;;0.20;0.20;;;18.00;99.90;;;;;;5086386;28;20180;-69
2021/07/17 12:25:51;;;;;;;0.38;0.38;;;17.90;99.90;;;;;;5086940;28;20176;-69
2021/07/17 12:28:38;;;;;;;0.38;0.38;;;17.90;99.90;;;;;;5088278;28;20199;-69
2021/07/17 12:31:10;;;;;;;0.10;0.10;;;18.00;99.90;;;;;;5087158;28;20179;-69
2021/07/17 12:33:43;;;;;;;0.20;0.20;;;17.90;99.90;;;;;;5088571;28;20156;-68
2021/07/17 12:36:16;;;;;;;0.38;0.38;;;18.00;99.90;;;;;;5088982;28;20167;-68
2021/07/17 12:38:50;;;;;;;0.52;0.52;;;18.00;99.90;;;;;;5103854;28;20198;-68
2021/07/17 12:41:22;;;;;;;0.38;0.38;;;18.00;99.90;;;;;;5097572;28;20168;-67
2021/07/17 12:43:54;;;;;;;0.20;0.20;;;18.10;99.90;;;;;;5087265;28;20179;-69
2021/07/17 12:46:23;;;;;;;0.63;0.63;;;18.10;99.90;;;;;;5088325;28;20239;-68
2021/07/17 12:48:57;;;;;;;0.10;0.10;;;18.20;99.90;;;;;;5088749;28;20252;-68